sensor_id;sensor_type;location;lat;lon;timestamp;P1;durP1;ratioP1;P2;durP2;ratioP2
74473;SDS011;62922;-6.168;106.796;2023-08-06T00:00:43;46.38;;;28.90;;
74473;SDS011;62922;-6.168;106.796;2023-08-06T00:03:10;54.13;;;30.95;;
74473;SDS011;62922;-6.168;106.796;2023-08-06T00:05:36;50.58;;;29.63;;
74473;SDS011;62922;-6.168;106.796;2023-08-06T00:08:06;43.58;;;27.80;;
74473;SDS011;62922;-6.168;106.796;2023-08-06T00:10:33;57.40;;;32.00;;
74473;SDS011;62922;-6.168;106.796;2023-08-06T00:12:59;54.33;;;31.75;;
74473;SDS011;62922;-6.168;106.796;2023-08-06T00:15:27;58.13;;;32.08;;
74473;SDS011;62922;-6.168;106.796;2023-08-06T00:17:56;57.30;;;33.67;;
74473;SDS011;62922;-6.168;106.796;2023-08-06T00:20:25;66.70;;;34.08;;
74473;SDS011;62922;-6.168;106.796;2023-08-06T00:22:52;53.70;;;32.72;;
74473;SDS011;62922;-6.168;106.796;2023-08-06T00:25:18;57.92;;;36.13;;
74473;SDS011;62922;-6.168;106.796;2023-08-06T00:27:45;60.13;;;34.55;;
74473;SDS011;62922;-6.168;106.796;2023-08-06T00:30:11;55.15;;;33.83;;
74473;SDS011;62922;-6.168;106.796;2023-08-06T00:32:37;58.28;;;34.10;;
74473;SDS011;62922;-6.168;106.796;2023-08-06T00:35:04;51.70;;;33.40;;
74473;SDS011;62922;-6.168;106.796;2023-08-06T00:40:06;59.13;;;33.63;;
74473;SDS011;62922;-6.168;106.796;2023-08-06T00:42:34;60.03;;;34.72;;
74473;SDS011;62922;-6.168;106.796;2023-08-06T00:45:00;55.03;;;32.15;;
74473;SDS011;62922;-6.168;106.796;2023-08-06T00:47:27;58.13;;;33.10;;
74473;SDS011;62922;-6.168;106.796;2023-08-06T00:49:53;49.85;;;32.70;;
74473;SDS011;62922;-6.168;106.796;2023-08-06T00:52:20;56.47;;;33.38;;
74473;SDS011;62922;-6.168;106.796;2023-08-06T00:54:46;55.78;;;33.45;;
74473;SDS011;62922;-6.168;106.796;2023-08-06T00:57:13;55.97;;;35.03;;
74473;SDS011;62922;-6.168;106.796;2023-08-06T00:59:39;62.25;;;35.10;;
74473;SDS011;62922;-6.168;106.796;2023-08-06T01:02:06;58.25;;;33.53;;
74473;SDS011;62922;-6.168;106.796;2023-08-06T01:04:32;54.20;;;32.65;;
74473;SDS011;62922;-6.168;106.796;2023-08-06T01:09:30;53.47;;;32.72;;
74473;SDS011;62922;-6.168;106.796;2023-08-06T01:17:10;48.15;;;33.05;;
74473;SDS011;62922;-6.168;106.796;2023-08-06T01:19:38;53.15;;;34.05;;
74473;SDS011;62922;-6.168;106.796;2023-08-06T01:22:04;47.05;;;32.28;;
74473;SDS011;62922;-6.168;106.796;2023-08-06T01:24:33;52.13;;;32.15;;
74473;SDS011;62922;-6.168;106.796;2023-08-06T01:27:03;52.35;;;31.42;;
74473;SDS011;62922;-6.168;106.796;2023-08-06T01:29:39;45.88;;;31.77;;
74473;SDS011;62922;-6.168;106.796;2023-08-06T01:32:11;52.53;;;31.23;;
74473;SDS011;62922;-6.168;106.796;2023-08-06T01:34:40;51.10;;;30.98;;
74473;SDS011;62922;-6.168;106.796;2023-08-06T01:37:09;46.60;;;31.70;;
74473;SDS011;62922;-6.168;106.796;2023-08-06T01:39:36;52.55;;;33.85;;
74473;SDS011;62922;-6.168;106.796;2023-08-06T01:42:05;49.22;;;33.88;;
74473;SDS011;62922;-6.168;106.796;2023-08-06T01:44:33;59.65;;;34.63;;
74473;SDS011;62922;-6.168;106.796;2023-08-06T01:46:59;54.45;;;34.35;;
74473;SDS011;62922;-6.168;106.796;2023-08-06T01:49:25;58.20;;;35.58;;
74473;SDS011;62922;-6.168;106.796;2023-08-06T01:51:52;52.15;;;33.90;;
74473;SDS011;62922;-6.168;106.796;2023-08-06T01:54:18;50.28;;;34.35;;
74473;SDS011;62922;-6.168;106.796;2023-08-06T01:56:48;54.72;;;34.83;;
74473;SDS011;62922;-6.168;106.796;2023-08-06T01:59:14;58.60;;;35.50;;
74473;SDS011;62922;-6.168;106.796;2023-08-06T02:01:40;53.20;;;34.70;;
74473;SDS011;62922;-6.168;106.796;2023-08-06T02:04:06;58.85;;;36.42;;
74473;SDS011;62922;-6.168;106.796;2023-08-06T02:06:33;48.85;;;34.63;;
74473;SDS011;62922;-6.168;106.796;2023-08-06T02:08:59;52.75;;;35.78;;
74473;SDS011;62922;-6.168;106.796;2023-08-06T02:11:25;60.75;;;36.17;;
74473;SDS011;62922;-6.168;106.796;2023-08-06T02:13:52;53.08;;;36.20;;
74473;SDS011;62922;-6.168;106.796;2023-08-06T02:16:18;58.55;;;34.80;;
74473;SDS011;62922;-6.168;106.796;2023-08-06T02:18:44;61.17;;;36.38;;
74473;SDS011;62922;-6.168;106.796;2023-08-06T02:21:11;60.30;;;37.70;;
74473;SDS011;62922;-6.168;106.796;2023-08-06T02:23:37;53.67;;;35.47;;
74473;SDS011;62922;-6.168;106.796;2023-08-06T02:26:04;52.78;;;33.85;;
74473;SDS011;62922;-6.168;106.796;2023-08-06T02:28:30;51.17;;;33.03;;
74473;SDS011;62922;-6.168;106.796;2023-08-06T02:31:00;56.47;;;35.75;;
74473;SDS011;62922;-6.168;106.796;2023-08-06T02:33:32;56.00;;;36.55;;
74473;SDS011;62922;-6.168;106.796;2023-08-06T02:35:59;69.05;;;40.40;;
74473;SDS011;62922;-6.168;106.796;2023-08-06T02:40:57;69.75;;;43.05;;
74473;SDS011;62922;-6.168;106.796;2023-08-06T02:43:23;65.10;;;42.13;;
74473;SDS011;62922;-6.168;106.796;2023-08-06T02:45:49;71.35;;;45.05;;
74473;SDS011;62922;-6.168;106.796;2023-08-06T02:48:16;78.35;;;46.97;;
74473;SDS011;62922;-6.168;106.796;2023-08-06T02:50:43;68.45;;;44.15;;
74473;SDS011;62922;-6.168;106.796;2023-08-06T02:53:09;62.00;;;41.50;;
74473;SDS011;62922;-6.168;106.796;2023-08-06T02:55:44;65.40;;;42.00;;
74473;SDS011;62922;-6.168;106.796;2023-08-06T02:58:14;66.70;;;42.58;;
74473;SDS011;62922;-6.168;106.796;2023-08-06T03:00:41;63.38;;;43.47;;
74473;SDS011;62922;-6.168;106.796;2023-08-06T03:03:08;63.42;;;40.63;;
74473;SDS011;62922;-6.168;106.796;2023-08-06T03:05:37;64.18;;;45.40;;
74473;SDS011;62922;-6.168;106.796;2023-08-06T03:08:04;62.10;;;44.63;;
74473;SDS011;62922;-6.168;106.796;2023-08-06T03:10:30;65.47;;;42.47;;
74473;SDS011;62922;-6.168;106.796;2023-08-06T03:12:56;62.75;;;42.28;;
74473;SDS011;62922;-6.168;106.796;2023-08-06T03:15:22;59.58;;;42.45;;
74473;SDS011;62922;-6.168;106.796;2023-08-06T03:17:52;60.85;;;41.42;;
74473;SDS011;62922;-6.168;106.796;2023-08-06T03:20:21;63.22;;;43.35;;
74473;SDS011;62922;-6.168;106.796;2023-08-06T03:22:47;64.30;;;43.15;;
74473;SDS011;62922;-6.168;106.796;2023-08-06T03:25:13;60.33;;;42.90;;
74473;SDS011;62922;-6.168;106.796;2023-08-06T03:27:40;62.15;;;43.72;;
74473;SDS011;62922;-6.168;106.796;2023-08-06T03:30:06;62.35;;;43.50;;
74473;SDS011;62922;-6.168;106.796;2023-08-06T03:32:33;62.70;;;42.60;;
74473;SDS011;62922;-6.168;106.796;2023-08-06T03:34:59;68.50;;;44.05;;
74473;SDS011;62922;-6.168;106.796;2023-08-06T03:37:25;58.50;;;40.42;;
74473;SDS011;62922;-6.168;106.796;2023-08-06T03:39:52;60.88;;;39.70;;
74473;SDS011;62922;-6.168;106.796;2023-08-06T03:42:18;56.83;;;41.35;;
74473;SDS011;62922;-6.168;106.796;2023-08-06T03:44:44;64.65;;;45.00;;
74473;SDS011;62922;-6.168;106.796;2023-08-06T03:47:11;69.70;;;42.85;;
74473;SDS011;62922;-6.168;106.796;2023-08-06T03:49:37;64.45;;;43.63;;
74473;SDS011;62922;-6.168;106.796;2023-08-06T03:52:04;55.63;;;39.38;;
74473;SDS011;62922;-6.168;106.796;2023-08-06T03:54:31;55.22;;;39.58;;
74473;SDS011;62922;-6.168;106.796;2023-08-06T03:56:59;61.22;;;40.58;;
74473;SDS011;62922;-6.168;106.796;2023-08-06T03:59:26;51.38;;;37.47;;
74473;SDS011;62922;-6.168;106.796;2023-08-06T04:01:52;57.33;;;39.92;;
74473;SDS011;62922;-6.168;106.796;2023-08-06T04:04:18;56.78;;;39.50;;
74473;SDS011;62922;-6.168;106.796;2023-08-06T04:06:45;58.65;;;39.70;;
74473;SDS011;62922;-6.168;106.796;2023-08-06T04:09:11;61.80;;;39.95;;
74473;SDS011;62922;-6.168;106.796;2023-08-06T04:11:38;56.58;;;40.72;;
74473;SDS011;62922;-6.168;106.796;2023-08-06T04:14:07;51.85;;;38.08;;
74473;SDS011;62922;-6.168;106.796;2023-08-06T04:16:33;57.47;;;38.03;;
74473;SDS011;62922;-6.168;106.796;2023-08-06T04:18:59;55.70;;;38.28;;
74473;SDS011;62922;-6.168;106.796;2023-08-06T04:21:26;57.80;;;40.28;;
74473;SDS011;62922;-6.168;106.796;2023-08-06T04:23:52;56.92;;;39.10;;
74473;SDS011;62922;-6.168;106.796;2023-08-06T04:26:18;51.08;;;36.38;;
74473;SDS011;62922;-6.168;106.796;2023-08-06T04:28:48;56.67;;;37.97;;
74473;SDS011;62922;-6.168;106.796;2023-08-06T04:31:14;54.30;;;35.70;;
74473;SDS011;62922;-6.168;106.796;2023-08-06T04:33:40;48.70;;;34.45;;
74473;SDS011;62922;-6.168;106.796;2023-08-06T04:36:07;53.15;;;36.00;;
74473;SDS011;62922;-6.168;106.796;2023-08-06T04:38:33;46.97;;;34.88;;
74473;SDS011;62922;-6.168;106.796;2023-08-06T04:41:01;53.70;;;35.08;;
74473;SDS011;62922;-6.168;106.796;2023-08-06T04:43:30;47.00;;;33.85;;
74473;SDS011;62922;-6.168;106.796;2023-08-06T04:45:57;54.63;;;37.35;;
74473;SDS011;62922;-6.168;106.796;2023-08-06T04:48:23;53.38;;;36.38;;
74473;SDS011;62922;-6.168;106.796;2023-08-06T04:50:50;45.60;;;35.60;;
74473;SDS011;62922;-6.168;106.796;2023-08-06T04:53:16;51.15;;;37.95;;
74473;SDS011;62922;-6.168;106.796;2023-08-06T04:55:43;56.28;;;36.83;;
74473;SDS011;62922;-6.168;106.796;2023-08-06T04:58:10;54.50;;;37.92;;
74473;SDS011;62922;-6.168;106.796;2023-08-06T05:00:39;54.33;;;36.95;;
74473;SDS011;62922;-6.168;106.796;2023-08-06T05:03:05;50.30;;;36.90;;
74473;SDS011;62922;-6.168;106.796;2023-08-06T05:05:32;57.30;;;37.22;;
74473;SDS011;62922;-6.168;106.796;2023-08-06T05:07:58;51.38;;;37.05;;
74473;SDS011;62922;-6.168;106.796;2023-08-06T05:10:25;49.08;;;34.80;;
74473;SDS011;62922;-6.168;106.796;2023-08-06T05:12:52;56.25;;;36.60;;
74473;SDS011;62922;-6.168;106.796;2023-08-06T05:15:21;56.85;;;35.85;;
74473;SDS011;62922;-6.168;106.796;2023-08-06T05:17:48;50.08;;;34.00;;
74473;SDS011;62922;-6.168;106.796;2023-08-06T05:20:14;50.45;;;35.22;;
74473;SDS011;62922;-6.168;106.796;2023-08-06T05:22:41;53.17;;;37.42;;
74473;SDS011;62922;-6.168;106.796;2023-08-06T05:25:07;59.08;;;42.95;;
74473;SDS011;62922;-6.168;106.796;2023-08-06T05:27:34;69.68;;;48.97;;
74473;SDS011;62922;-6.168;106.796;2023-08-06T05:30:03;62.35;;;46.60;;
74473;SDS011;62922;-6.168;106.796;2023-08-06T05:32:29;76.07;;;51.95;;
74473;SDS011;62922;-6.168;106.796;2023-08-06T05:34:56;68.20;;;45.90;;
74473;SDS011;62922;-6.168;106.796;2023-08-06T05:37:22;58.55;;;41.90;;
74473;SDS011;62922;-6.168;106.796;2023-08-06T05:39:48;60.83;;;42.22;;
74473;SDS011;62922;-6.168;106.796;2023-08-06T05:42:15;63.80;;;40.63;;
74473;SDS011;62922;-6.168;106.796;2023-08-06T05:44:41;62.78;;;45.10;;
74473;SDS011;62922;-6.168;106.796;2023-08-06T05:47:08;55.70;;;41.38;;
74473;SDS011;62922;-6.168;106.796;2023-08-06T05:49:34;56.40;;;41.53;;
74473;SDS011;62922;-6.168;106.796;2023-08-06T05:52:03;62.35;;;42.92;;
74473;SDS011;62922;-6.168;106.796;2023-08-06T05:54:33;61.55;;;40.38;;
74473;SDS011;62922;-6.168;106.796;2023-08-06T05:56:59;70.32;;;43.47;;
74473;SDS011;62922;-6.168;106.796;2023-08-06T05:59:26;74.95;;;45.45;;
74473;SDS011;62922;-6.168;106.796;2023-08-06T06:01:52;65.45;;;41.35;;
74473;SDS011;62922;-6.168;106.796;2023-08-06T06:04:18;74.10;;;48.78;;
74473;SDS011;62922;-6.168;106.796;2023-08-06T06:06:45;74.30;;;46.53;;
74473;SDS011;62922;-6.168;106.796;2023-08-06T06:09:11;69.40;;;47.03;;
74473;SDS011;62922;-6.168;106.796;2023-08-06T06:11:37;71.93;;;48.65;;
74473;SDS011;62922;-6.168;106.796;2023-08-06T06:14:04;800.88;;;238.98;;
74473;SDS011;62922;-6.168;106.796;2023-08-06T06:16:31;920.28;;;264.92;;
74473;SDS011;62922;-6.168;106.796;2023-08-06T06:18:57;706.53;;;198.38;;
74473;SDS011;62922;-6.168;106.796;2023-08-06T06:21:24;498.45;;;141.63;;
74473;SDS011;62922;-6.168;106.796;2023-08-06T06:23:50;474.90;;;139.27;;
74473;SDS011;62922;-6.168;106.796;2023-08-06T06:26:18;445.08;;;130.80;;
74473;SDS011;62922;-6.168;106.796;2023-08-06T06:28:44;330.00;;;104.13;;
74473;SDS011;62922;-6.168;106.796;2023-08-06T06:31:13;355.45;;;111.03;;
74473;SDS011;62922;-6.168;106.796;2023-08-06T06:33:39;307.77;;;101.63;;
74473;SDS011;62922;-6.168;106.796;2023-08-06T06:36:06;190.00;;;75.43;;
74473;SDS011;62922;-6.168;106.796;2023-08-06T06:38:33;189.23;;;73.68;;
74473;SDS011;62922;-6.168;106.796;2023-08-06T06:41:02;163.30;;;66.78;;
74473;SDS011;62922;-6.168;106.796;2023-08-06T06:43:28;128.98;;;61.85;;
74473;SDS011;62922;-6.168;106.796;2023-08-06T06:45:56;180.27;;;75.30;;
74473;SDS011;62922;-6.168;106.796;2023-08-06T06:48:25;103.30;;;54.35;;
74473;SDS011;62922;-6.168;106.796;2023-08-06T06:50:55;111.10;;;55.27;;
74473;SDS011;62922;-6.168;106.796;2023-08-06T06:53:22;104.72;;;55.10;;
74473;SDS011;62922;-6.168;106.796;2023-08-06T06:56:01;126.65;;;59.13;;
74473;SDS011;62922;-6.168;106.796;2023-08-06T07:00:55;116.25;;;56.75;;
74473;SDS011;62922;-6.168;106.796;2023-08-06T07:03:22;99.93;;;54.97;;
74473;SDS011;62922;-6.168;106.796;2023-08-06T07:05:48;93.20;;;51.22;;
74473;SDS011;62922;-6.168;106.796;2023-08-06T07:08:15;84.03;;;50.80;;
74473;SDS011;62922;-6.168;106.796;2023-08-06T07:10:42;89.05;;;50.85;;
74473;SDS011;62922;-6.168;106.796;2023-08-06T07:13:08;74.93;;;49.10;;
74473;SDS011;62922;-6.168;106.796;2023-08-06T07:15:35;88.55;;;52.80;;
74473;SDS011;62922;-6.168;106.796;2023-08-06T07:18:02;79.47;;;49.45;;
74473;SDS011;62922;-6.168;106.796;2023-08-06T07:20:28;77.60;;;50.20;;
74473;SDS011;62922;-6.168;106.796;2023-08-06T07:22:57;67.97;;;46.63;;
74473;SDS011;62922;-6.168;106.796;2023-08-06T07:25:24;77.07;;;46.63;;
74473;SDS011;62922;-6.168;106.796;2023-08-06T07:27:50;61.15;;;44.42;;
74473;SDS011;62922;-6.168;106.796;2023-08-06T07:30:16;70.65;;;46.85;;
74473;SDS011;62922;-6.168;106.796;2023-08-06T07:32:43;66.40;;;44.40;;
74473;SDS011;62922;-6.168;106.796;2023-08-06T07:35:09;69.55;;;42.70;;
74473;SDS011;62922;-6.168;106.796;2023-08-06T07:37:38;58.17;;;41.08;;
74473;SDS011;62922;-6.168;106.796;2023-08-06T07:40:07;66.38;;;41.42;;
74473;SDS011;62922;-6.168;106.796;2023-08-06T07:42:36;62.10;;;40.60;;
74473;SDS011;62922;-6.168;106.796;2023-08-06T07:45:02;55.35;;;39.47;;
74473;SDS011;62922;-6.168;106.796;2023-08-06T07:47:29;54.15;;;38.13;;
74473;SDS011;62922;-6.168;106.796;2023-08-06T07:49:55;62.30;;;41.13;;
74473;SDS011;62922;-6.168;106.796;2023-08-06T07:52:22;59.45;;;40.67;;
74473;SDS011;62922;-6.168;106.796;2023-08-06T07:54:48;63.33;;;40.38;;
74473;SDS011;62922;-6.168;106.796;2023-08-06T07:57:14;60.80;;;40.13;;
74473;SDS011;62922;-6.168;106.796;2023-08-06T07:59:41;56.90;;;38.63;;
74473;SDS011;62922;-6.168;106.796;2023-08-06T08:02:07;57.58;;;38.78;;
74473;SDS011;62922;-6.168;106.796;2023-08-06T08:04:33;55.67;;;36.72;;
74473;SDS011;62922;-6.168;106.796;2023-08-06T08:07:02;45.97;;;35.03;;
74473;SDS011;62922;-6.168;106.796;2023-08-06T08:09:31;57.08;;;37.75;;
74473;SDS011;62922;-6.168;106.796;2023-08-06T08:12:01;57.30;;;37.00;;
74473;SDS011;62922;-6.168;106.796;2023-08-06T08:14:28;50.95;;;35.40;;
74473;SDS011;62922;-6.168;106.796;2023-08-06T08:16:54;55.65;;;37.65;;
74473;SDS011;62922;-6.168;106.796;2023-08-06T08:19:21;51.30;;;36.53;;
74473;SDS011;62922;-6.168;106.796;2023-08-06T08:21:47;51.08;;;37.10;;
74473;SDS011;62922;-6.168;106.796;2023-08-06T08:24:13;62.95;;;39.70;;
74473;SDS011;62922;-6.168;106.796;2023-08-06T08:26:40;56.63;;;38.83;;
74473;SDS011;62922;-6.168;106.796;2023-08-06T08:29:06;53.83;;;37.78;;
74473;SDS011;62922;-6.168;106.796;2023-08-06T08:31:32;54.65;;;38.15;;
74473;SDS011;62922;-6.168;106.796;2023-08-06T08:34:04;86.13;;;40.08;;
74473;SDS011;62922;-6.168;106.796;2023-08-06T08:36:31;57.08;;;36.70;;
74473;SDS011;62922;-6.168;106.796;2023-08-06T08:38:57;50.97;;;35.20;;
74473;SDS011;62922;-6.168;106.796;2023-08-06T08:41:24;51.50;;;35.58;;
74473;SDS011;62922;-6.168;106.796;2023-08-06T08:43:50;51.90;;;37.05;;
74473;SDS011;62922;-6.168;106.796;2023-08-06T08:46:18;52.38;;;34.22;;
74473;SDS011;62922;-6.168;106.796;2023-08-06T08:48:45;50.60;;;35.55;;
74473;SDS011;62922;-6.168;106.796;2023-08-06T08:51:12;48.30;;;36.70;;
74473;SDS011;62922;-6.168;106.796;2023-08-06T08:53:39;50.03;;;34.92;;
74473;SDS011;62922;-6.168;106.796;2023-08-06T08:56:08;45.30;;;33.72;;
74473;SDS011;62922;-6.168;106.796;2023-08-06T08:58:36;51.53;;;33.97;;
74473;SDS011;62922;-6.168;106.796;2023-08-06T09:01:02;48.78;;;33.35;;
74473;SDS011;62922;-6.168;106.796;2023-08-06T09:03:30;53.78;;;36.85;;
74473;SDS011;62922;-6.168;106.796;2023-08-06T09:05:57;54.45;;;34.88;;
74473;SDS011;62922;-6.168;106.796;2023-08-06T09:08:27;49.20;;;35.28;;
74473;SDS011;62922;-6.168;106.796;2023-08-06T09:10:58;54.03;;;35.88;;
74473;SDS011;62922;-6.168;106.796;2023-08-06T09:13:27;47.95;;;37.17;;
74473;SDS011;62922;-6.168;106.796;2023-08-06T09:15:53;44.65;;;33.33;;
74473;SDS011;62922;-6.168;106.796;2023-08-06T09:18:25;57.50;;;37.20;;
74473;SDS011;62922;-6.168;106.796;2023-08-06T09:20:54;46.25;;;35.22;;
74473;SDS011;62922;-6.168;106.796;2023-08-06T09:23:26;46.17;;;35.88;;
74473;SDS011;62922;-6.168;106.796;2023-08-06T09:25:57;47.85;;;34.83;;
74473;SDS011;62922;-6.168;106.796;2023-08-06T09:28:23;50.15;;;34.90;;
74473;SDS011;62922;-6.168;106.796;2023-08-06T09:31:02;45.33;;;35.22;;
74473;SDS011;62922;-6.168;106.796;2023-08-06T09:33:29;43.17;;;33.28;;
74473;SDS011;62922;-6.168;106.796;2023-08-06T09:35:55;42.70;;;31.73;;
74473;SDS011;62922;-6.168;106.796;2023-08-06T09:38:24;41.33;;;32.42;;
74473;SDS011;62922;-6.168;106.796;2023-08-06T09:40:54;40.67;;;31.67;;
74473;SDS011;62922;-6.168;106.796;2023-08-06T09:43:22;43.78;;;31.77;;
74473;SDS011;62922;-6.168;106.796;2023-08-06T09:45:51;43.58;;;33.28;;
74473;SDS011;62922;-6.168;106.796;2023-08-06T09:48:18;44.28;;;31.88;;
74473;SDS011;62922;-6.168;106.796;2023-08-06T09:50:44;40.72;;;32.70;;
74473;SDS011;62922;-6.168;106.796;2023-08-06T09:53:12;44.38;;;31.50;;
74473;SDS011;62922;-6.168;106.796;2023-08-06T09:55:39;37.30;;;29.85;;
74473;SDS011;62922;-6.168;106.796;2023-08-06T09:58:06;39.47;;;30.05;;
74473;SDS011;62922;-6.168;106.796;2023-08-06T10:00:35;41.22;;;29.80;;
74473;SDS011;62922;-6.168;106.796;2023-08-06T10:03:04;35.20;;;27.63;;
74473;SDS011;62922;-6.168;106.796;2023-08-06T10:05:35;34.67;;;26.23;;
74473;SDS011;62922;-6.168;106.796;2023-08-06T10:08:03;35.60;;;26.85;;
74473;SDS011;62922;-6.168;106.796;2023-08-06T10:10:32;35.65;;;24.42;;
74473;SDS011;62922;-6.168;106.796;2023-08-06T10:13:00;32.53;;;24.63;;
74473;SDS011;62922;-6.168;106.796;2023-08-06T10:15:29;32.97;;;24.77;;
74473;SDS011;62922;-6.168;106.796;2023-08-06T10:17:57;40.70;;;28.67;;
74473;SDS011;62922;-6.168;106.796;2023-08-06T10:20:26;42.83;;;29.85;;
74473;SDS011;62922;-6.168;106.796;2023-08-06T10:25:30;33.55;;;26.42;;
74473;SDS011;62922;-6.168;106.796;2023-08-06T10:27:59;45.00;;;28.90;;
74473;SDS011;62922;-6.168;106.796;2023-08-06T10:32:57;42.20;;;27.95;;
74473;SDS011;62922;-6.168;106.796;2023-08-06T10:38:11;42.75;;;29.05;;
74473;SDS011;62922;-6.168;106.796;2023-08-06T10:40:49;42.00;;;28.67;;
74473;SDS011;62922;-6.168;106.796;2023-08-06T10:45:57;46.17;;;31.15;;
74473;SDS011;62922;-6.168;106.796;2023-08-06T10:51:02;52.35;;;30.90;;
74473;SDS011;62922;-6.168;106.796;2023-08-06T10:53:30;56.67;;;31.77;;
74473;SDS011;62922;-6.168;106.796;2023-08-06T10:55:57;60.58;;;33.58;;
74473;SDS011;62922;-6.168;106.796;2023-08-06T10:58:23;58.28;;;32.22;;
74473;SDS011;62922;-6.168;106.796;2023-08-06T11:00:49;57.42;;;32.25;;
74473;SDS011;62922;-6.168;106.796;2023-08-06T11:03:16;64.72;;;33.10;;
74473;SDS011;62922;-6.168;106.796;2023-08-06T11:05:48;60.28;;;33.28;;
74473;SDS011;62922;-6.168;106.796;2023-08-06T11:08:37;66.40;;;32.97;;
74473;SDS011;62922;-6.168;106.796;2023-08-06T11:13:39;56.30;;;30.85;;
74473;SDS011;62922;-6.168;106.796;2023-08-06T11:16:06;56.97;;;28.92;;
74473;SDS011;62922;-6.168;106.796;2023-08-06T11:18:33;60.85;;;27.85;;
74473;SDS011;62922;-6.168;106.796;2023-08-06T11:21:01;53.15;;;28.73;;
74473;SDS011;62922;-6.168;106.796;2023-08-06T11:23:28;56.85;;;30.30;;
74473;SDS011;62922;-6.168;106.796;2023-08-06T11:25:55;50.50;;;30.08;;
74473;SDS011;62922;-6.168;106.796;2023-08-06T11:28:23;52.03;;;29.30;;
74473;SDS011;62922;-6.168;106.796;2023-08-06T11:30:50;41.85;;;31.77;;
74473;SDS011;62922;-6.168;106.796;2023-08-06T11:35:54;39.90;;;29.70;;
74473;SDS011;62922;-6.168;106.796;2023-08-06T11:38:24;41.55;;;29.98;;
74473;SDS011;62922;-6.168;106.796;2023-08-06T11:40:52;39.92;;;30.15;;
74473;SDS011;62922;-6.168;106.796;2023-08-06T11:43:19;44.55;;;30.52;;
74473;SDS011;62922;-6.168;106.796;2023-08-06T11:45:48;45.55;;;29.58;;
74473;SDS011;62922;-6.168;106.796;2023-08-06T11:48:18;37.28;;;28.98;;
74473;SDS011;62922;-6.168;106.796;2023-08-06T11:50:45;36.65;;;27.67;;
74473;SDS011;62922;-6.168;106.796;2023-08-06T11:53:12;40.38;;;29.88;;
74473;SDS011;62922;-6.168;106.796;2023-08-06T11:55:40;36.53;;;29.10;;
74473;SDS011;62922;-6.168;106.796;2023-08-06T11:58:09;39.85;;;30.42;;
74473;SDS011;62922;-6.168;106.796;2023-08-06T12:00:40;35.55;;;28.23;;
74473;SDS011;62922;-6.168;106.796;2023-08-06T12:03:07;40.03;;;29.95;;
74473;SDS011;62922;-6.168;106.796;2023-08-06T12:05:35;48.90;;;30.88;;
74473;SDS011;62922;-6.168;106.796;2023-08-06T12:08:04;47.80;;;27.73;;
74473;SDS011;62922;-6.168;106.796;2023-08-06T12:10:33;44.80;;;28.50;;
74473;SDS011;62922;-6.168;106.796;2023-08-06T12:12:59;42.97;;;27.83;;
74473;SDS011;62922;-6.168;106.796;2023-08-06T12:15:26;43.90;;;26.98;;
74473;SDS011;62922;-6.168;106.796;2023-08-06T12:17:52;42.05;;;24.42;;
74473;SDS011;62922;-6.168;106.796;2023-08-06T12:20:18;38.13;;;23.83;;
74473;SDS011;62922;-6.168;106.796;2023-08-06T12:22:45;39.42;;;23.50;;
74473;SDS011;62922;-6.168;106.796;2023-08-06T12:25:12;33.80;;;20.90;;
74473;SDS011;62922;-6.168;106.796;2023-08-06T12:27:39;39.78;;;21.10;;
74473;SDS011;62922;-6.168;106.796;2023-08-06T12:30:09;36.78;;;19.48;;
74473;SDS011;62922;-6.168;106.796;2023-08-06T12:32:37;30.48;;;18.00;;
74473;SDS011;62922;-6.168;106.796;2023-08-06T12:35:04;46.92;;;19.40;;
74473;SDS011;62922;-6.168;106.796;2023-08-06T12:37:32;41.58;;;19.05;;
74473;SDS011;62922;-6.168;106.796;2023-08-06T12:40:01;35.47;;;18.77;;
74473;SDS011;62922;-6.168;106.796;2023-08-06T12:44:58;50.05;;;20.30;;
74473;SDS011;62922;-6.168;106.796;2023-08-06T12:47:24;49.28;;;21.13;;
74473;SDS011;62922;-6.168;106.796;2023-08-06T12:49:50;52.83;;;12.43;;
74473;SDS011;62922;-6.168;106.796;2023-08-06T12:52:16;50.22;;;11.65;;
74473;SDS011;62922;-6.168;106.796;2023-08-06T12:54:45;40.72;;;10.95;;
74473;SDS011;62922;-6.168;106.796;2023-08-06T12:57:11;41.65;;;10.57;;
74473;SDS011;62922;-6.168;106.796;2023-08-06T12:59:37;62.35;;;21.83;;
74473;SDS011;62922;-6.168;106.796;2023-08-06T13:02:03;63.28;;;21.35;;
74473;SDS011;62922;-6.168;106.796;2023-08-06T13:04:29;56.72;;;20.63;;
74473;SDS011;62922;-6.168;106.796;2023-08-06T13:06:55;53.10;;;22.05;;
74473;SDS011;62922;-6.168;106.796;2023-08-06T13:09:21;66.93;;;25.50;;
74473;SDS011;62922;-6.168;106.796;2023-08-06T13:11:47;65.53;;;24.73;;
74473;SDS011;62922;-6.168;106.796;2023-08-06T13:14:15;61.30;;;24.73;;
74473;SDS011;62922;-6.168;106.796;2023-08-06T13:16:42;60.05;;;22.00;;
74473;SDS011;62922;-6.168;106.796;2023-08-06T13:19:11;54.30;;;21.35;;
74473;SDS011;62922;-6.168;106.796;2023-08-06T13:24:06;55.83;;;21.10;;
74473;SDS011;62922;-6.168;106.796;2023-08-06T13:26:32;60.28;;;21.83;;
74473;SDS011;62922;-6.168;106.796;2023-08-06T13:29:00;48.22;;;19.52;;
74473;SDS011;62922;-6.168;106.796;2023-08-06T13:31:27;70.05;;;20.95;;
74473;SDS011;62922;-6.168;106.796;2023-08-06T13:33:54;56.78;;;20.45;;
74473;SDS011;62922;-6.168;106.796;2023-08-06T13:36:21;55.67;;;19.55;;
74473;SDS011;62922;-6.168;106.796;2023-08-06T13:38:48;54.28;;;20.58;;
74473;SDS011;62922;-6.168;106.796;2023-08-06T13:41:14;54.10;;;20.75;;
74473;SDS011;62922;-6.168;106.796;2023-08-06T13:43:39;70.63;;;26.02;;
74473;SDS011;62922;-6.168;106.796;2023-08-06T13:46:05;55.05;;;19.60;;
74473;SDS011;62922;-6.168;106.796;2023-08-06T13:48:31;101.80;;;37.40;;
74473;SDS011;62922;-6.168;106.796;2023-08-06T13:51:00;66.00;;;21.83;;
74473;SDS011;62922;-6.168;106.796;2023-08-06T13:53:26;50.90;;;18.85;;
74473;SDS011;62922;-6.168;106.796;2023-08-06T13:55:55;50.45;;;18.67;;
74473;SDS011;62922;-6.168;106.796;2023-08-06T13:58:22;61.40;;;19.77;;
74473;SDS011;62922;-6.168;106.796;2023-08-06T14:00:48;59.95;;;19.15;;
74473;SDS011;62922;-6.168;106.796;2023-08-06T14:03:14;56.35;;;19.60;;
74473;SDS011;62922;-6.168;106.796;2023-08-06T14:05:41;55.33;;;19.27;;
74473;SDS011;62922;-6.168;106.796;2023-08-06T14:08:06;52.05;;;18.48;;
74473;SDS011;62922;-6.168;106.796;2023-08-06T14:10:32;58.92;;;18.45;;
74473;SDS011;62922;-6.168;106.796;2023-08-06T14:12:58;67.80;;;21.08;;
74473;SDS011;62922;-6.168;106.796;2023-08-06T14:15:24;60.83;;;20.48;;
74473;SDS011;62922;-6.168;106.796;2023-08-06T14:17:50;60.95;;;21.83;;
74473;SDS011;62922;-6.168;106.796;2023-08-06T14:20:16;53.08;;;21.60;;
74473;SDS011;62922;-6.168;106.796;2023-08-06T14:22:42;56.03;;;22.70;;
74473;SDS011;62922;-6.168;106.796;2023-08-06T14:25:07;56.40;;;22.52;;
74473;SDS011;62922;-6.168;106.796;2023-08-06T14:27:33;59.38;;;23.45;;
74473;SDS011;62922;-6.168;106.796;2023-08-06T14:30:00;60.17;;;23.55;;
74473;SDS011;62922;-6.168;106.796;2023-08-06T14:32:26;56.58;;;23.75;;
74473;SDS011;62922;-6.168;106.796;2023-08-06T14:34:52;70.05;;;24.90;;